sensor_id;sensor_type;location;lat;lon;timestamp;temperature;humidity
2763;DHT22;1389;51.490;7.338;2022-12-18T00:02:21;-6.60;90.10
2763;DHT22;1389;51.490;7.338;2022-12-18T00:04:47;-6.60;90.30
2763;DHT22;1389;51.490;7.338;2022-12-18T00:07:13;-6.50;90.20
2763;DHT22;1389;51.490;7.338;2022-12-18T00:09:39;-6.50;90.10
2763;DHT22;1389;51.490;7.338;2022-12-18T00:12:06;-6.50;90.30
2763;DHT22;1389;51.490;7.338;2022-12-18T00:14:33;-6.50;90.10
2763;DHT22;1389;51.490;7.338;2022-12-18T00:16:59;-6.60;89.90
2763;DHT22;1389;51.490;7.338;2022-12-18T00:19:26;-6.70;89.90
2763;DHT22;1389;51.490;7.338;2022-12-18T00:21:52;-6.70;90.10
2763;DHT22;1389;51.490;7.338;2022-12-18T00:24:18;-6.60;90.40
2763;DHT22;1389;51.490;7.338;2022-12-18T00:26:44;-6.60;90.40
2763;DHT22;1389;51.490;7.338;2022-12-18T00:29:12;-6.60;90.20
2763;DHT22;1389;51.490;7.338;2022-12-18T00:31:42;-6.70;89.80
2763;DHT22;1389;51.490;7.338;2022-12-18T00:34:11;-6.70;89.80
2763;DHT22;1389;51.490;7.338;2022-12-18T00:36:38;-6.60;90.10
2763;DHT22;1389;51.490;7.338;2022-12-18T00:39:04;-6.60;89.90
2763;DHT22;1389;51.490;7.338;2022-12-18T00:41:31;-6.70;90.10
2763;DHT22;1389;51.490;7.338;2022-12-18T00:44:17;-6.70;90.00
2763;DHT22;1389;51.490;7.338;2022-12-18T00:46:44;-6.60;89.90
2763;DHT22;1389;51.490;7.338;2022-12-18T00:49:12;-6.60;89.60
2763;DHT22;1389;51.490;7.338;2022-12-18T00:51:38;-6.60;89.50
2763;DHT22;1389;51.490;7.338;2022-12-18T00:54:04;-6.60;89.10
2763;DHT22;1389;51.490;7.338;2022-12-18T00:56:30;-6.70;89.10
2763;DHT22;1389;51.490;7.338;2022-12-18T00:58:57;-6.70;89.30
2763;DHT22;1389;51.490;7.338;2022-12-18T01:01:23;-6.80;89.30
2763;DHT22;1389;51.490;7.338;2022-12-18T01:03:49;-6.70;89.30
2763;DHT22;1389;51.490;7.338;2022-12-18T01:06:16;-6.70;89.20
2763;DHT22;1389;51.490;7.338;2022-12-18T01:08:42;-6.70;89.30
2763;DHT22;1389;51.490;7.338;2022-12-18T01:11:15;-6.70;89.60
2763;DHT22;1389;51.490;7.338;2022-12-18T01:13:42;-6.80;89.50
2763;DHT22;1389;51.490;7.338;2022-12-18T01:16:08;-6.90;89.30
2763;DHT22;1389;51.490;7.338;2022-12-18T01:18:36;-6.90;89.30
2763;DHT22;1389;51.490;7.338;2022-12-18T01:21:07;-7.00;89.40
2763;DHT22;1389;51.490;7.338;2022-12-18T01:23:33;-7.00;89.50
2763;DHT22;1389;51.490;7.338;2022-12-18T01:26:08;-7.10;89.50
2763;DHT22;1389;51.490;7.338;2022-12-18T01:28:35;-7.10;89.60
2763;DHT22;1389;51.490;7.338;2022-12-18T01:33:44;-7.10;89.60
2763;DHT22;1389;51.490;7.338;2022-12-18T01:36:28;-7.10;89.70
2763;DHT22;1389;51.490;7.338;2022-12-18T01:38:55;-7.10;90.00
2763;DHT22;1389;51.490;7.338;2022-12-18T01:41:24;-7.00;90.30
2763;DHT22;1389;51.490;7.338;2022-12-18T01:43:57;-6.90;90.10
2763;DHT22;1389;51.490;7.338;2022-12-18T01:46:24;-6.90;90.10
2763;DHT22;1389;51.490;7.338;2022-12-18T01:48:54;-6.90;89.90
2763;DHT22;1389;51.490;7.338;2022-12-18T01:51:22;-7.00;89.50
2763;DHT22;1389;51.490;7.338;2022-12-18T01:53:49;-7.00;89.60
2763;DHT22;1389;51.490;7.338;2022-12-18T01:56:17;-7.10;89.60
2763;DHT22;1389;51.490;7.338;2022-12-18T02:01:13;-7.00;90.00
2763;DHT22;1389;51.490;7.338;2022-12-18T02:03:41;-7.00;90.10
2763;DHT22;1389;51.490;7.338;2022-12-18T02:11:33;-7.00;89.60
2763;DHT22;1389;51.490;7.338;2022-12-18T02:14:12;-7.10;89.60
2763;DHT22;1389;51.490;7.338;2022-12-18T02:17:01;-7.10;89.40
2763;DHT22;1389;51.490;7.338;2022-12-18T02:20:04;-7.10;89.60
2763;DHT22;1389;51.490;7.338;2022-12-18T02:27:49;-7.30;89.70
2763;DHT22;1389;51.490;7.338;2022-12-18T02:30:17;-7.30;89.60
2763;DHT22;1389;51.490;7.338;2022-12-18T02:32:47;-7.30;89.50
2763;DHT22;1389;51.490;7.338;2022-12-18T02:35:22;-7.30;89.80
2763;DHT22;1389;51.490;7.338;2022-12-18T02:37:49;-7.20;89.80
2763;DHT22;1389;51.490;7.338;2022-12-18T02:40:16;-7.30;89.80
2763;DHT22;1389;51.490;7.338;2022-12-18T02:42:43;-7.30;89.70
2763;DHT22;1389;51.490;7.338;2022-12-18T02:45:09;-7.30;89.70
2763;DHT22;1389;51.490;7.338;2022-12-18T02:47:42;-7.40;89.40
2763;DHT22;1389;51.490;7.338;2022-12-18T02:50:41;-7.40;89.20
2763;DHT22;1389;51.490;7.338;2022-12-18T02:56:21;-7.40;89.50
2763;DHT22;1389;51.490;7.338;2022-12-18T02:59:10;-7.20;90.00
2763;DHT22;1389;51.490;7.338;2022-12-18T03:01:56;-7.10;90.30
2763;DHT22;1389;51.490;7.338;2022-12-18T03:04:27;-7.10;90.10
2763;DHT22;1389;51.490;7.338;2022-12-18T03:06:57;-7.10;90.00
2763;DHT22;1389;51.490;7.338;2022-12-18T03:09:32;-7.10;89.80
2763;DHT22;1389;51.490;7.338;2022-12-18T03:12:08;-7.10;89.70
2763;DHT22;1389;51.490;7.338;2022-12-18T03:15:10;-7.10;89.30
2763;DHT22;1389;51.490;7.338;2022-12-18T03:17:41;-7.10;88.90
2763;DHT22;1389;51.490;7.338;2022-12-18T03:20:13;-7.20;88.80
2763;DHT22;1389;51.490;7.338;2022-12-18T03:22:42;-7.20;88.80
2763;DHT22;1389;51.490;7.338;2022-12-18T03:25:11;-7.30;88.90
2763;DHT22;1389;51.490;7.338;2022-12-18T03:27:42;-7.30;89.10
2763;DHT22;1389;51.490;7.338;2022-12-18T03:30:14;-7.30;89.00
2763;DHT22;1389;51.490;7.338;2022-12-18T03:35:21;-7.40;88.90
2763;DHT22;1389;51.490;7.338;2022-12-18T03:37:49;-7.50;89.00
2763;DHT22;1389;51.490;7.338;2022-12-18T03:40:15;-7.50;89.00
2763;DHT22;1389;51.490;7.338;2022-12-18T03:42:55;-7.60;89.00
2763;DHT22;1389;51.490;7.338;2022-12-18T03:45:31;-7.60;89.10
2763;DHT22;1389;51.490;7.338;2022-12-18T03:51:26;-7.60;89.10
2763;DHT22;1389;51.490;7.338;2022-12-18T03:53:58;-7.50;89.00
2763;DHT22;1389;51.490;7.338;2022-12-18T03:56:29;-7.60;89.10
2763;DHT22;1389;51.490;7.338;2022-12-18T03:58:56;-7.50;89.10
2763;DHT22;1389;51.490;7.338;2022-12-18T04:01:33;-7.60;89.00
2763;DHT22;1389;51.490;7.338;2022-12-18T04:04:01;-7.60;89.00
2763;DHT22;1389;51.490;7.338;2022-12-18T04:06:28;-7.60;89.00
2763;DHT22;1389;51.490;7.338;2022-12-18T04:08:57;-7.60;89.00
2763;DHT22;1389;51.490;7.338;2022-12-18T04:11:23;-7.60;89.20
2763;DHT22;1389;51.490;7.338;2022-12-18T04:13:49;-7.60;89.20
2763;DHT22;1389;51.490;7.338;2022-12-18T04:16:15;-7.60;89.10
2763;DHT22;1389;51.490;7.338;2022-12-18T04:18:41;-7.70;89.00
2763;DHT22;1389;51.490;7.338;2022-12-18T04:21:07;-7.70;89.10
2763;DHT22;1389;51.490;7.338;2022-12-18T04:23:33;-7.60;89.10
2763;DHT22;1389;51.490;7.338;2022-12-18T04:25:59;-7.60;88.90
2763;DHT22;1389;51.490;7.338;2022-12-18T04:28:25;-7.60;88.90
2763;DHT22;1389;51.490;7.338;2022-12-18T04:30:52;-7.60;88.90
2763;DHT22;1389;51.490;7.338;2022-12-18T04:33:18;-7.60;89.00
2763;DHT22;1389;51.490;7.338;2022-12-18T04:35:44;-7.60;88.80
2763;DHT22;1389;51.490;7.338;2022-12-18T04:38:10;-7.60;88.90
2763;DHT22;1389;51.490;7.338;2022-12-18T04:40:37;-7.70;88.80
2763;DHT22;1389;51.490;7.338;2022-12-18T04:43:03;-7.70;88.60
2763;DHT22;1389;51.490;7.338;2022-12-18T04:45:31;-7.80;88.50
2763;DHT22;1389;51.490;7.338;2022-12-18T04:47:58;-7.80;88.70
2763;DHT22;1389;51.490;7.338;2022-12-18T04:50:24;-7.90;88.90
2763;DHT22;1389;51.490;7.338;2022-12-18T04:52:50;-7.90;89.10
2763;DHT22;1389;51.490;7.338;2022-12-18T04:55:16;-7.80;89.40
2763;DHT22;1389;51.490;7.338;2022-12-18T04:57:42;-7.70;89.30
2763;DHT22;1389;51.490;7.338;2022-12-18T05:00:08;-7.70;89.30
2763;DHT22;1389;51.490;7.338;2022-12-18T05:02:35;-7.70;89.20
2763;DHT22;1389;51.490;7.338;2022-12-18T05:05:01;-7.70;89.20
2763;DHT22;1389;51.490;7.338;2022-12-18T05:07:27;-7.70;89.10
2763;DHT22;1389;51.490;7.338;2022-12-18T05:09:53;-7.70;89.10
2763;DHT22;1389;51.490;7.338;2022-12-18T05:12:19;-7.70;89.10
2763;DHT22;1389;51.490;7.338;2022-12-18T05:14:45;-7.80;89.20
2763;DHT22;1389;51.490;7.338;2022-12-18T05:17:11;-7.80;89.10
2763;DHT22;1389;51.490;7.338;2022-12-18T05:19:38;-7.80;88.90
2763;DHT22;1389;51.490;7.338;2022-12-18T05:22:04;-7.80;89.10
2763;DHT22;1389;51.490;7.338;2022-12-18T05:24:30;-7.70;89.30
2763;DHT22;1389;51.490;7.338;2022-12-18T05:26:56;-7.70;89.30
2763;DHT22;1389;51.490;7.338;2022-12-18T05:29:22;-7.70;89.00
2763;DHT22;1389;51.490;7.338;2022-12-18T05:31:48;-7.70;88.90
2763;DHT22;1389;51.490;7.338;2022-12-18T05:34:14;-7.80;88.90
2763;DHT22;1389;51.490;7.338;2022-12-18T05:36:40;-7.80;89.20
2763;DHT22;1389;51.490;7.338;2022-12-18T05:39:06;-7.80;89.20
2763;DHT22;1389;51.490;7.338;2022-12-18T05:41:32;-7.70;89.30
2763;DHT22;1389;51.490;7.338;2022-12-18T05:43:59;-7.70;89.30
2763;DHT22;1389;51.490;7.338;2022-12-18T05:46:25;-7.60;89.40
2763;DHT22;1389;51.490;7.338;2022-12-18T05:48:51;-7.60;89.20
2763;DHT22;1389;51.490;7.338;2022-12-18T05:51:20;-7.60;89.00
2763;DHT22;1389;51.490;7.338;2022-12-18T05:53:47;-7.60;89.00
2763;DHT22;1389;51.490;7.338;2022-12-18T05:56:17;-7.60;89.20
2763;DHT22;1389;51.490;7.338;2022-12-18T05:58:43;-7.60;89.20
2763;DHT22;1389;51.490;7.338;2022-12-18T06:01:16;-7.60;89.00
2763;DHT22;1389;51.490;7.338;2022-12-18T06:03:43;-7.60;89.10
2763;DHT22;1389;51.490;7.338;2022-12-18T06:06:20;-7.60;89.30
2763;DHT22;1389;51.490;7.338;2022-12-18T06:08:49;-7.50;89.00
2763;DHT22;1389;51.490;7.338;2022-12-18T06:11:23;-7.50;88.70
2763;DHT22;1389;51.490;7.338;2022-12-18T06:13:54;-7.60;88.50
2763;DHT22;1389;51.490;7.338;2022-12-18T06:16:20;-7.60;88.80
2763;DHT22;1389;51.490;7.338;2022-12-18T06:18:46;-7.70;89.00
2763;DHT22;1389;51.490;7.338;2022-12-18T06:21:13;-7.70;88.90
2763;DHT22;1389;51.490;7.338;2022-12-18T06:23:39;-7.70;88.80
2763;DHT22;1389;51.490;7.338;2022-12-18T06:26:07;-7.60;89.00
2763;DHT22;1389;51.490;7.338;2022-12-18T06:28:34;-7.60;89.10
2763;DHT22;1389;51.490;7.338;2022-12-18T06:31:00;-7.60;89.30
2763;DHT22;1389;51.490;7.338;2022-12-18T06:33:27;-7.60;89.40
2763;DHT22;1389;51.490;7.338;2022-12-18T06:35:54;-7.60;89.50
2763;DHT22;1389;51.490;7.338;2022-12-18T06:38:20;-7.60;89.50
2763;DHT22;1389;51.490;7.338;2022-12-18T06:40:47;-7.70;89.50
2763;DHT22;1389;51.490;7.338;2022-12-18T06:43:13;-7.70;89.50
2763;DHT22;1389;51.490;7.338;2022-12-18T06:45:39;-7.60;89.70
2763;DHT22;1389;51.490;7.338;2022-12-18T06:48:05;-7.60;89.80
2763;DHT22;1389;51.490;7.338;2022-12-18T06:50:31;-7.60;89.80
2763;DHT22;1389;51.490;7.338;2022-12-18T06:52:57;-7.60;89.80
2763;DHT22;1389;51.490;7.338;2022-12-18T06:55:23;-7.60;89.70
2763;DHT22;1389;51.490;7.338;2022-12-18T06:57:49;-7.60;89.50
2763;DHT22;1389;51.490;7.338;2022-12-18T07:00:15;-7.60;89.40
2763;DHT22;1389;51.490;7.338;2022-12-18T07:02:42;-7.70;89.30
2763;DHT22;1389;51.490;7.338;2022-12-18T07:05:08;-7.70;89.30
2763;DHT22;1389;51.490;7.338;2022-12-18T07:07:34;-7.80;89.40
2763;DHT22;1389;51.490;7.338;2022-12-18T07:10:00;-7.80;89.50
2763;DHT22;1389;51.490;7.338;2022-12-18T07:12:27;-7.80;89.60
2763;DHT22;1389;51.490;7.338;2022-12-18T07:14:53;-7.80;89.70
2763;DHT22;1389;51.490;7.338;2022-12-18T07:17:19;-7.70;89.90
2763;DHT22;1389;51.490;7.338;2022-12-18T07:19:45;-7.70;90.00
2763;DHT22;1389;51.490;7.338;2022-12-18T07:22:11;-7.70;89.90
2763;DHT22;1389;51.490;7.338;2022-12-18T07:24:37;-7.70;89.80
2763;DHT22;1389;51.490;7.338;2022-12-18T07:27:03;-7.70;89.70
2763;DHT22;1389;51.490;7.338;2022-12-18T07:29:29;-7.70;89.90
2763;DHT22;1389;51.490;7.338;2022-12-18T07:31:55;-7.70;90.00
2763;DHT22;1389;51.490;7.338;2022-12-18T07:34:21;-7.70;89.90
2763;DHT22;1389;51.490;7.338;2022-12-18T07:36:47;-7.60;89.80
2763;DHT22;1389;51.490;7.338;2022-12-18T07:39:13;-7.60;90.00
2763;DHT22;1389;51.490;7.338;2022-12-18T07:41:40;-7.50;90.00
2763;DHT22;1389;51.490;7.338;2022-12-18T07:44:12;-7.50;90.00
2763;DHT22;1389;51.490;7.338;2022-12-18T07:46:38;-7.50;89.90
2763;DHT22;1389;51.490;7.338;2022-12-18T07:49:04;-7.50;89.80
2763;DHT22;1389;51.490;7.338;2022-12-18T07:51:30;-7.50;89.80
2763;DHT22;1389;51.490;7.338;2022-12-18T07:53:57;-7.50;90.00
2763;DHT22;1389;51.490;7.338;2022-12-18T07:56:23;-7.40;90.20
2763;DHT22;1389;51.490;7.338;2022-12-18T07:58:49;-7.40;90.40
2763;DHT22;1389;51.490;7.338;2022-12-18T08:01:15;-7.30;90.40
2763;DHT22;1389;51.490;7.338;2022-12-18T08:03:41;-7.20;90.50
2763;DHT22;1389;51.490;7.338;2022-12-18T08:06:09;-7.10;90.60
2763;DHT22;1389;51.490;7.338;2022-12-18T08:08:36;-7.00;90.80
2763;DHT22;1389;51.490;7.338;2022-12-18T08:11:02;-6.90;90.90
2763;DHT22;1389;51.490;7.338;2022-12-18T08:13:28;-6.80;91.30
2763;DHT22;1389;51.490;7.338;2022-12-18T08:16:06;-6.60;91.40
2763;DHT22;1389;51.490;7.338;2022-12-18T08:18:33;-6.50;91.40
2763;DHT22;1389;51.490;7.338;2022-12-18T08:21:11;-6.40;91.20
2763;DHT22;1389;51.490;7.338;2022-12-18T08:23:38;-6.30;91.30
2763;DHT22;1389;51.490;7.338;2022-12-18T08:26:04;-6.30;91.20
2763;DHT22;1389;51.490;7.338;2022-12-18T08:28:30;-6.30;91.30
2763;DHT22;1389;51.490;7.338;2022-12-18T08:30:56;-6.20;91.70
2763;DHT22;1389;51.490;7.338;2022-12-18T08:33:22;-6.00;91.90
2763;DHT22;1389;51.490;7.338;2022-12-18T08:35:49;-5.90;91.90
2763;DHT22;1389;51.490;7.338;2022-12-18T08:38:15;-5.90;91.40
2763;DHT22;1389;51.490;7.338;2022-12-18T08:40:41;-5.90;91.30
2763;DHT22;1389;51.490;7.338;2022-12-18T08:43:09;-5.90;91.30
2763;DHT22;1389;51.490;7.338;2022-12-18T08:45:54;-5.90;91.40
2763;DHT22;1389;51.490;7.338;2022-12-18T08:48:21;-5.80;91.70
2763;DHT22;1389;51.490;7.338;2022-12-18T08:50:57;-5.80;91.90
2763;DHT22;1389;51.490;7.338;2022-12-18T08:53:24;-5.80;91.90
2763;DHT22;1389;51.490;7.338;2022-12-18T08:55:50;-5.70;92.10
2763;DHT22;1389;51.490;7.338;2022-12-18T08:58:16;-5.70;92.20
2763;DHT22;1389;51.490;7.338;2022-12-18T09:00:42;-5.60;92.40
2763;DHT22;1389;51.490;7.338;2022-12-18T09:03:17;-5.60;92.40
2763;DHT22;1389;51.490;7.338;2022-12-18T09:05:45;-5.50;92.70
2763;DHT22;1389;51.490;7.338;2022-12-18T09:08:11;-5.40;93.00
2763;DHT22;1389;51.490;7.338;2022-12-18T09:10:45;-5.20;93.20
2763;DHT22;1389;51.490;7.338;2022-12-18T09:13:11;-5.10;93.20
2763;DHT22;1389;51.490;7.338;2022-12-18T09:15:56;-5.00;93.20
2763;DHT22;1389;51.490;7.338;2022-12-18T09:18:23;-5.00;93.20
2763;DHT22;1389;51.490;7.338;2022-12-18T09:20:49;-4.90;93.40
2763;DHT22;1389;51.490;7.338;2022-12-18T09:23:19;-4.80;93.40
2763;DHT22;1389;51.490;7.338;2022-12-18T09:25:45;-4.70;93.40
2763;DHT22;1389;51.490;7.338;2022-12-18T09:28:17;-4.60;93.50
2763;DHT22;1389;51.490;7.338;2022-12-18T09:30:47;-4.60;93.50
2763;DHT22;1389;51.490;7.338;2022-12-18T09:33:13;-4.50;93.50
2763;DHT22;1389;51.490;7.338;2022-12-18T09:35:40;-4.40;93.60
2763;DHT22;1389;51.490;7.338;2022-12-18T09:38:08;-4.40;93.50
2763;DHT22;1389;51.490;7.338;2022-12-18T09:40:43;-4.30;93.50
2763;DHT22;1389;51.490;7.338;2022-12-18T09:43:26;-4.30;93.40
2763;DHT22;1389;51.490;7.338;2022-12-18T09:46:03;-4.20;93.50
2763;DHT22;1389;51.490;7.338;2022-12-18T09:48:38;-4.20;93.60
2763;DHT22;1389;51.490;7.338;2022-12-18T09:51:21;-4.10;93.70
2763;DHT22;1389;51.490;7.338;2022-12-18T09:54:06;-4.10;93.80
2763;DHT22;1389;51.490;7.338;2022-12-18T09:56:36;-4.00;93.90
2763;DHT22;1389;51.490;7.338;2022-12-18T09:59:05;-4.00;94.10
2763;DHT22;1389;51.490;7.338;2022-12-18T10:01:32;-3.90;94.30
2763;DHT22;1389;51.490;7.338;2022-12-18T10:03:58;-3.80;94.40
2763;DHT22;1389;51.490;7.338;2022-12-18T10:09:24;-3.60;94.70
2763;DHT22;1389;51.490;7.338;2022-12-18T10:11:59;-3.50;94.80
2763;DHT22;1389;51.490;7.338;2022-12-18T10:14:47;-3.40;94.90
2763;DHT22;1389;51.490;7.338;2022-12-18T10:17:38;-3.40;95.20
2763;DHT22;1389;51.490;7.338;2022-12-18T10:20:20;-3.30;95.20
2763;DHT22;1389;51.490;7.338;2022-12-18T10:23:04;-3.20;95.40
2763;DHT22;1389;51.490;7.338;2022-12-18T10:28:12;-3.00;95.50
2763;DHT22;1389;51.490;7.338;2022-12-18T10:30:40;-2.90;95.50
2763;DHT22;1389;51.490;7.338;2022-12-18T10:33:21;-2.90;95.40
2763;DHT22;1389;51.490;7.338;2022-12-18T10:35:50;-2.80;95.40
2763;DHT22;1389;51.490;7.338;2022-12-18T10:40:55;-2.70;95.70
2763;DHT22;1389;51.490;7.338;2022-12-18T10:43:25;-2.60;95.80
2763;DHT22;1389;51.490;7.338;2022-12-18T10:51:05;-2.40;96.10
2763;DHT22;1389;51.490;7.338;2022-12-18T10:53:34;-2.40;96.20
2763;DHT22;1389;51.490;7.338;2022-12-18T10:56:04;-2.30;96.20
2763;DHT22;1389;51.490;7.338;2022-12-18T10:58:33;-2.20;96.30
2763;DHT22;1389;51.490;7.338;2022-12-18T11:01:14;-2.20;96.40
2763;DHT22;1389;51.490;7.338;2022-12-18T11:03:42;-2.10;96.50
2763;DHT22;1389;51.490;7.338;2022-12-18T11:06:20;-2.00;96.50
2763;DHT22;1389;51.490;7.338;2022-12-18T11:09:04;-1.90;96.60
2763;DHT22;1389;51.490;7.338;2022-12-18T11:11:32;-1.90;96.60
2763;DHT22;1389;51.490;7.338;2022-12-18T11:14:06;-1.80;96.70
2763;DHT22;1389;51.490;7.338;2022-12-18T11:16:49;-1.70;96.80
2763;DHT22;1389;51.490;7.338;2022-12-18T11:19:37;-1.60;96.90
2763;DHT22;1389;51.490;7.338;2022-12-18T11:22:19;-1.50;96.90
2763;DHT22;1389;51.490;7.338;2022-12-18T11:25:03;-1.50;96.70
2763;DHT22;1389;51.490;7.338;2022-12-18T11:27:31;-1.50;96.50
2763;DHT22;1389;51.490;7.338;2022-12-18T11:35:37;-1.30;96.70
2763;DHT22;1389;51.490;7.338;2022-12-18T11:41:19;-1.20;96.80
2763;DHT22;1389;51.490;7.338;2022-12-18T11:43:55;-1.20;96.70
2763;DHT22;1389;51.490;7.338;2022-12-18T11:46:32;-1.10;96.70
2763;DHT22;1389;51.490;7.338;2022-12-18T11:49:20;-1.10;96.70
2763;DHT22;1389;51.490;7.338;2022-12-18T11:51:53;-1.00;96.90
2763;DHT22;1389;51.490;7.338;2022-12-18T11:54:21;-1.00;96.90
2763;DHT22;1389;51.490;7.338;2022-12-18T11:57:15;-1.00;96.90
2763;DHT22;1389;51.490;7.338;2022-12-18T12:00:02;-0.90;96.80
2763;DHT22;1389;51.490;7.338;2022-12-18T12:05:28;-0.80;97.00
2763;DHT22;1389;51.490;7.338;2022-12-18T12:08:13;-0.80;97.00
2763;DHT22;1389;51.490;7.338;2022-12-18T12:14:51;-0.70;97.00
2763;DHT22;1389;51.490;7.338;2022-12-18T12:16:51;-0.70;97.00
2763;DHT22;1389;51.490;7.338;2022-12-18T12:19:29;-0.70;96.90
2763;DHT22;1389;51.490;7.338;2022-12-18T12:25:01;-0.60;97.10
2763;DHT22;1389;51.490;7.338;2022-12-18T12:40:20;-0.40;97.20
2763;DHT22;1389;51.490;7.338;2022-12-18T12:42:54;-0.40;97.10
2763;DHT22;1389;51.490;7.338;2022-12-18T12:46:03;-0.30;97.10
2763;DHT22;1389;51.490;7.338;2022-12-18T12:51:24;-0.20;96.60
2763;DHT22;1389;51.490;7.338;2022-12-18T12:53:52;-0.20;96.40
2763;DHT22;1389;51.490;7.338;2022-12-18T12:56:20;-0.20;96.40
2763;DHT22;1389;51.490;7.338;2022-12-18T13:06:47;-0.10;96.20
2763;DHT22;1389;51.490;7.338;2022-12-18T13:09:16;-0.10;96.20
2763;DHT22;1389;51.490;7.338;2022-12-18T13:11:44;-0.10;96.20
2763;DHT22;1389;51.490;7.338;2022-12-18T13:14:37;-0.10;96.30
2763;DHT22;1389;51.490;7.338;2022-12-18T13:19:42;0.00;96.50
2763;DHT22;1389;51.490;7.338;2022-12-18T13:22:30;0.00;96.30
2763;DHT22;1389;51.490;7.338;2022-12-18T13:24:57;0.00;96.10
2763;DHT22;1389;51.490;7.338;2022-12-18T13:27:47;0.00;96.10
2763;DHT22;1389;51.490;7.338;2022-12-18T13:41:21;-0.10;96.50
2763;DHT22;1389;51.490;7.338;2022-12-18T13:43:48;-0.10;96.70
2763;DHT22;1389;51.490;7.338;2022-12-18T13:46:27;-0.10;96.70
2763;DHT22;1389;51.490;7.338;2022-12-18T13:51:41;0.00;96.50
2763;DHT22;1389;51.490;7.338;2022-12-18T13:54:18;0.00;96.50
2763;DHT22;1389;51.490;7.338;2022-12-18T13:56:47;0.00;96.60
2763;DHT22;1389;51.490;7.338;2022-12-18T13:59:26;0.00;96.70
2763;DHT22;1389;51.490;7.338;2022-12-18T14:01:55;0.00;96.70
2763;DHT22;1389;51.490;7.338;2022-12-18T14:04:27;0.00;96.70
2763;DHT22;1389;51.490;7.338;2022-12-18T14:07:06;0.00;96.70
2763;DHT22;1389;51.490;7.338;2022-12-18T14:09:57;0.00;96.70
2763;DHT22;1389;51.490;7.338;2022-12-18T14:12:28;0.00;96.70
2763;DHT22;1389;51.490;7.338;2022-12-18T14:17:53;0.00;96.60
2763;DHT22;1389;51.490;7.338;2022-12-18T14:20:20;0.00;96.70
2763;DHT22;1389;51.490;7.338;2022-12-18T14:22:48;0.00;96.60
2763;DHT22;1389;51.490;7.338;2022-12-18T14:25:19;0.00;96.60
2763;DHT22;1389;51.490;7.338;2022-12-18T14:27:48;0.00;96.60
2763;DHT22;1389;51.490;7.338;2022-12-18T14:30:39;0.00;96.50
2763;DHT22;1389;51.490;7.338;2022-12-18T14:35:39;0.00;96.20
2763;DHT22;1389;51.490;7.338;2022-12-18T14:40:52;0.00;95.90
2763;DHT22;1389;51.490;7.338;2022-12-18T14:43:19;0.00;95.90
2763;DHT22;1389;51.490;7.338;2022-12-18T14:45:45;0.00;95.90
2763;DHT22;1389;51.490;7.338;2022-12-18T14:48:32;0.00;95.90
2763;DHT22;1389;51.490;7.338;2022-12-18T14:51:23;0.10;95.80
2763;DHT22;1389;51.490;7.338;2022-12-18T14:53:54;0.00;95.80
2763;DHT22;1389;51.490;7.338;2022-12-18T14:56:25;0.00;95.80
2763;DHT22;1389;51.490;7.338;2022-12-18T15:01:35;0.10;95.50
2763;DHT22;1389;51.490;7.338;2022-12-18T15:04:04;0.10;95.30
2763;DHT22;1389;51.490;7.338;2022-12-18T15:06:45;0.10;94.60
2763;DHT22;1389;51.490;7.338;2022-12-18T15:09:32;0.10;94.40
2763;DHT22;1389;51.490;7.338;2022-12-18T15:12:00;0.10;94.40
2763;DHT22;1389;51.490;7.338;2022-12-18T15:16:57;0.10;94.60
2763;DHT22;1389;51.490;7.338;2022-12-18T15:19:39;0.10;94.50
2763;DHT22;1389;51.490;7.338;2022-12-18T15:22:33;0.10;94.50
2763;DHT22;1389;51.490;7.338;2022-12-18T15:25:00;0.10;94.40
2763;DHT22;1389;51.490;7.338;2022-12-18T15:27:32;0.10;94.50
2763;DHT22;1389;51.490;7.338;2022-12-18T15:30:20;0.20;93.60
2763;DHT22;1389;51.490;7.338;2022-12-18T15:32:47;0.20;93.00
2763;DHT22;1389;51.490;7.338;2022-12-18T15:35:22;0.30;92.30
2763;DHT22;1389;51.490;7.338;2022-12-18T15:37:49;0.40;91.50
2763;DHT22;1389;51.490;7.338;2022-12-18T15:40:21;0.40;90.80
2763;DHT22;1389;51.490;7.338;2022-12-18T15:42:48;0.50;89.40
2763;DHT22;1389;51.490;7.338;2022-12-18T15:45:35;0.50;89.40
2763;DHT22;1389;51.490;7.338;2022-12-18T15:48:44;0.50;89.20
2763;DHT22;1389;51.490;7.338;2022-12-18T15:50:51;0.50;88.70
2763;DHT22;1389;51.490;7.338;2022-12-18T15:53:18;0.70;87.10
2763;DHT22;1389;51.490;7.338;2022-12-18T15:55:45;0.70;86.70
2763;DHT22;1389;51.490;7.338;2022-12-18T15:58:30;0.80;85.40
2763;DHT22;1389;51.490;7.338;2022-12-18T16:00:57;1.00;84.30
2763;DHT22;1389;51.490;7.338;2022-12-18T16:03:24;1.10;84.10
2763;DHT22;1389;51.490;7.338;2022-12-18T16:05:50;1.20;82.00
2763;DHT22;1389;51.490;7.338;2022-12-18T16:08:16;1.30;81.70
2763;DHT22;1389;51.490;7.338;2022-12-18T16:10:42;1.40;80.80
2763;DHT22;1389;51.490;7.338;2022-12-18T16:13:13;1.50;81.40
2763;DHT22;1389;51.490;7.338;2022-12-18T16:15:41;1.50;80.70
2763;DHT22;1389;51.490;7.338;2022-12-18T16:18:07;1.50;80.30
2763;DHT22;1389;51.490;7.338;2022-12-18T16:20:33;1.60;82.40
2763;DHT22;1389;51.490;7.338;2022-12-18T16:22:59;1.60;82.80
2763;DHT22;1389;51.490;7.338;2022-12-18T16:25:28;1.50;82.50
2763;DHT22;1389;51.490;7.338;2022-12-18T16:27:55;1.50;81.90
2763;DHT22;1389;51.490;7.338;2022-12-18T16:30:27;1.50;80.80
2763;DHT22;1389;51.490;7.338;2022-12-18T16:32:54;1.40;82.50
2763;DHT22;1389;51.490;7.338;2022-12-18T16:35:21;1.30;83.80
2763;DHT22;1389;51.490;7.338;2022-12-18T16:37:47;1.20;84.60
2763;DHT22;1389;51.490;7.338;2022-12-18T16:40:15;1.20;85.10
2763;DHT22;1389;51.490;7.338;2022-12-18T16:42:44;1.20;85.10
2763;DHT22;1389;51.490;7.338;2022-12-18T16:45:16;1.20;84.80
2763;DHT22;1389;51.490;7.338;2022-12-18T16:47:43;1.20;85.00
2763;DHT22;1389;51.490;7.338;2022-12-18T16:50:09;1.20;85.10
2763;DHT22;1389;51.490;7.338;2022-12-18T16:52:36;1.20;84.80
2763;DHT22;1389;51.490;7.338;2022-12-18T16:55:02;1.10;85.30
2763;DHT22;1389;51.490;7.338;2022-12-18T16:57:28;1.10;85.40
2763;DHT22;1389;51.490;7.338;2022-12-18T16:59:54;1.20;85.50
2763;DHT22;1389;51.490;7.338;2022-12-18T17:02:24;1.30;84.40
2763;DHT22;1389;51.490;7.338;2022-12-18T17:04:54;1.30;85.10
2763;DHT22;1389;51.490;7.338;2022-12-18T17:07:20;1.30;84.90
2763;DHT22;1389;51.490;7.338;2022-12-18T17:09:46;1.30;85.10
2763;DHT22;1389;51.490;7.338;2022-12-18T17:12:12;1.20;85.30
2763;DHT22;1389;51.490;7.338;2022-12-18T17:14:38;1.20;85.80
2763;DHT22;1389;51.490;7.338;2022-12-18T17:17:04;1.10;86.40
2763;DHT22;1389;51.490;7.338;2022-12-18T17:19:30;1.10;86.70
2763;DHT22;1389;51.490;7.338;2022-12-18T17:21:56;1.00;86.10
2763;DHT22;1389;51.490;7.338;2022-12-18T17:24:22;1.10;86.80
2763;DHT22;1389;51.490;7.338;2022-12-18T17:26:48;1.10;87.10
2763;DHT22;1389;51.490;7.338;2022-12-18T17:29:17;1.00;86.90
2763;DHT22;1389;51.490;7.338;2022-12-18T17:31:45;1.00;87.10
2763;DHT22;1389;51.490;7.338;2022-12-18T17:34:12;1.00;87.10
2763;DHT22;1389;51.490;7.338;2022-12-18T17:36:38;1.00;87.40
2763;DHT22;1389;51.490;7.338;2022-12-18T17:39:05;1.00;87.70
2763;DHT22;1389;51.490;7.338;2022-12-18T17:41:32;1.00;88.00
2763;DHT22;1389;51.490;7.338;2022-12-18T17:44:00;1.00;88.10
2763;DHT22;1389;51.490;7.338;2022-12-18T17:46:28;1.00;88.30
2763;DHT22;1389;51.490;7.338;2022-12-18T17:48:56;1.00;88.50
2763;DHT22;1389;51.490;7.338;2022-12-18T17:51:22;1.00;88.70
2763;DHT22;1389;51.490;7.338;2022-12-18T17:53:49;0.90;88.90
2763;DHT22;1389;51.490;7.338;2022-12-18T17:56:17;0.90;88.90
2763;DHT22;1389;51.490;7.338;2022-12-18T17:58:44;1.00;88.70
2763;DHT22;1389;51.490;7.338;2022-12-18T18:01:13;1.00;88.70
2763;DHT22;1389;51.490;7.338;2022-12-18T18:03:40;1.00;88.80
2763;DHT22;1389;51.490;7.338;2022-12-18T18:06:07;1.10;88.20
2763;DHT22;1389;51.490;7.338;2022-12-18T18:08:33;1.10;87.80
2763;DHT22;1389;51.490;7.338;2022-12-18T18:11:04;1.10;87.30
2763;DHT22;1389;51.490;7.338;2022-12-18T18:13:49;1.10;86.80
2763;DHT22;1389;51.490;7.338;2022-12-18T18:16:39;1.20;86.30
2763;DHT22;1389;51.490;7.338;2022-12-18T18:19:08;1.10;86.00